sensor_id;sensor_type;location;lat;lon;timestamp;temperature;humidity
20066;DHT22;10193;48.884;9.182;2023-02-18T00:01:09;14.40;71.80
20066;DHT22;10193;48.884;9.182;2023-02-18T00:03:36;14.40;71.70
20066;DHT22;10193;48.884;9.182;2023-02-18T00:06:10;14.40;71.50
20066;DHT22;10193;48.884;9.182;2023-02-18T00:08:38;14.40;71.30
20066;DHT22;10193;48.884;9.182;2023-02-18T00:11:05;14.40;71.40
20066;DHT22;10193;48.884;9.182;2023-02-18T00:13:32;14.40;71.40
20066;DHT22;10193;48.884;9.182;2023-02-18T00:16:00;14.40;71.40
20066;DHT22;10193;48.884;9.182;2023-02-18T00:18:27;14.40;71.40
20066;DHT22;10193;48.884;9.182;2023-02-18T00:20:54;14.40;71.40
20066;DHT22;10193;48.884;9.182;2023-02-18T00:23:20;14.40;71.40
20066;DHT22;10193;48.884;9.182;2023-02-18T00:25:48;14.40;71.40
20066;DHT22;10193;48.884;9.182;2023-02-18T00:28:15;14.40;71.40
20066;DHT22;10193;48.884;9.182;2023-02-18T00:30:42;14.30;71.30
20066;DHT22;10193;48.884;9.182;2023-02-18T00:33:09;14.40;71.40
20066;DHT22;10193;48.884;9.182;2023-02-18T00:35:35;14.30;71.40
20066;DHT22;10193;48.884;9.182;2023-02-18T00:38:02;14.30;71.40
20066;DHT22;10193;48.884;9.182;2023-02-18T00:40:29;14.30;71.40
20066;DHT22;10193;48.884;9.182;2023-02-18T00:42:57;14.30;71.50
20066;DHT22;10193;48.884;9.182;2023-02-18T00:45:23;14.30;71.50
20066;DHT22;10193;48.884;9.182;2023-02-18T00:47:50;14.30;71.50
20066;DHT22;10193;48.884;9.182;2023-02-18T00:50:17;14.30;71.50
20066;DHT22;10193;48.884;9.182;2023-02-18T00:52:43;14.30;71.50
20066;DHT22;10193;48.884;9.182;2023-02-18T00:55:10;14.30;71.60
20066;DHT22;10193;48.884;9.182;2023-02-18T00:57:37;14.30;71.80
20066;DHT22;10193;48.884;9.182;2023-02-18T01:00:08;14.30;71.80
20066;DHT22;10193;48.884;9.182;2023-02-18T01:02:35;14.30;71.80
20066;DHT22;10193;48.884;9.182;2023-02-18T01:05:02;14.30;71.80
20066;DHT22;10193;48.884;9.182;2023-02-18T01:07:29;14.30;71.80
20066;DHT22;10193;48.884;9.182;2023-02-18T01:09:55;14.40;72.00
20066;DHT22;10193;48.884;9.182;2023-02-18T01:12:22;14.30;71.90
20066;DHT22;10193;48.884;9.182;2023-02-18T01:14:49;14.40;72.00
20066;DHT22;10193;48.884;9.182;2023-02-18T01:17:17;14.40;72.00
20066;DHT22;10193;48.884;9.182;2023-02-18T01:19:43;14.40;71.80
20066;DHT22;10193;48.884;9.182;2023-02-18T01:22:10;14.40;71.90
20066;DHT22;10193;48.884;9.182;2023-02-18T01:24:36;14.40;71.80
20066;DHT22;10193;48.884;9.182;2023-02-18T01:27:03;14.40;71.70
20066;DHT22;10193;48.884;9.182;2023-02-18T01:29:30;14.40;71.60
20066;DHT22;10193;48.884;9.182;2023-02-18T01:31:57;14.50;71.60
20066;DHT22;10193;48.884;9.182;2023-02-18T01:34:25;14.40;71.40
20066;DHT22;10193;48.884;9.182;2023-02-18T01:36:51;14.40;71.40
20066;DHT22;10193;48.884;9.182;2023-02-18T01:39:18;14.40;71.40
20066;DHT22;10193;48.884;9.182;2023-02-18T01:41:45;14.40;71.30
20066;DHT22;10193;48.884;9.182;2023-02-18T01:44:13;14.40;71.20
20066;DHT22;10193;48.884;9.182;2023-02-18T01:46:40;14.40;71.20
20066;DHT22;10193;48.884;9.182;2023-02-18T01:49:07;14.40;71.20
20066;DHT22;10193;48.884;9.182;2023-02-18T01:51:39;14.40;71.10
20066;DHT22;10193;48.884;9.182;2023-02-18T01:54:10;14.30;70.90
20066;DHT22;10193;48.884;9.182;2023-02-18T01:56:41;14.30;70.90
20066;DHT22;10193;48.884;9.182;2023-02-18T01:59:13;14.30;71.00
20066;DHT22;10193;48.884;9.182;2023-02-18T02:01:42;14.30;71.10
20066;DHT22;10193;48.884;9.182;2023-02-18T02:04:10;14.20;71.10
20066;DHT22;10193;48.884;9.182;2023-02-18T02:06:38;14.20;71.00
20066;DHT22;10193;48.884;9.182;2023-02-18T02:09:08;14.20;71.10
20066;DHT22;10193;48.884;9.182;2023-02-18T02:14:54;14.10;71.00
20066;DHT22;10193;48.884;9.182;2023-02-18T02:17:32;14.10;71.30
20066;DHT22;10193;48.884;9.182;2023-02-18T02:20:37;14.10;71.40
20066;DHT22;10193;48.884;9.182;2023-02-18T02:23:33;14.10;71.30
20066;DHT22;10193;48.884;9.182;2023-02-18T02:26:19;14.10;71.30
20066;DHT22;10193;48.884;9.182;2023-02-18T02:32:05;14.10;71.40
20066;DHT22;10193;48.884;9.182;2023-02-18T02:34:48;14.10;71.20
20066;DHT22;10193;48.884;9.182;2023-02-18T02:37:24;14.10;71.30
20066;DHT22;10193;48.884;9.182;2023-02-18T02:40:00;14.10;71.50
20066;DHT22;10193;48.884;9.182;2023-02-18T02:42:37;14.10;71.50
20066;DHT22;10193;48.884;9.182;2023-02-18T02:45:10;14.10;71.40
20066;DHT22;10193;48.884;9.182;2023-02-18T02:47:47;14.10;71.60
20066;DHT22;10193;48.884;9.182;2023-02-18T02:50:19;14.10;71.70
20066;DHT22;10193;48.884;9.182;2023-02-18T02:52:52;14.10;71.70
20066;DHT22;10193;48.884;9.182;2023-02-18T02:55:21;14.10;71.70
20066;DHT22;10193;48.884;9.182;2023-02-18T02:57:50;14.20;71.80
20066;DHT22;10193;48.884;9.182;2023-02-18T03:00:19;14.20;71.80
20066;DHT22;10193;48.884;9.182;2023-02-18T03:05:49;14.20;71.60
20066;DHT22;10193;48.884;9.182;2023-02-18T03:08:28;14.20;71.60
20066;DHT22;10193;48.884;9.182;2023-02-18T03:11:01;14.20;71.60
20066;DHT22;10193;48.884;9.182;2023-02-18T03:13:40;14.20;71.50
20066;DHT22;10193;48.884;9.182;2023-02-18T03:16:14;14.20;71.30
20066;DHT22;10193;48.884;9.182;2023-02-18T03:18:47;14.20;71.40
20066;DHT22;10193;48.884;9.182;2023-02-18T03:21:22;14.20;71.30
20066;DHT22;10193;48.884;9.182;2023-02-18T03:23:53;14.20;71.10
20066;DHT22;10193;48.884;9.182;2023-02-18T03:26:23;14.20;71.20
20066;DHT22;10193;48.884;9.182;2023-02-18T03:28:52;14.20;71.20
20066;DHT22;10193;48.884;9.182;2023-02-18T03:31:24;14.20;71.20
20066;DHT22;10193;48.884;9.182;2023-02-18T03:33:54;14.20;71.00
20066;DHT22;10193;48.884;9.182;2023-02-18T03:36:24;14.20;71.00
20066;DHT22;10193;48.884;9.182;2023-02-18T03:38:55;14.20;70.90
20066;DHT22;10193;48.884;9.182;2023-02-18T03:41:24;14.20;70.80
20066;DHT22;10193;48.884;9.182;2023-02-18T03:43:52;14.20;70.70
20066;DHT22;10193;48.884;9.182;2023-02-18T03:46:20;14.20;70.70
20066;DHT22;10193;48.884;9.182;2023-02-18T03:48:46;14.20;70.70
20066;DHT22;10193;48.884;9.182;2023-02-18T03:51:13;14.10;70.60
20066;DHT22;10193;48.884;9.182;2023-02-18T03:53:41;14.10;70.60
20066;DHT22;10193;48.884;9.182;2023-02-18T03:56:07;14.10;70.50
20066;DHT22;10193;48.884;9.182;2023-02-18T03:58:34;14.10;71.40
20066;DHT22;10193;48.884;9.182;2023-02-18T04:01:02;14.10;70.60
20066;DHT22;10193;48.884;9.182;2023-02-18T04:03:29;14.00;70.50
20066;DHT22;10193;48.884;9.182;2023-02-18T04:05:56;14.00;70.60
20066;DHT22;10193;48.884;9.182;2023-02-18T04:08:22;14.00;70.50
20066;DHT22;10193;48.884;9.182;2023-02-18T04:10:51;13.90;70.40
20066;DHT22;10193;48.884;9.182;2023-02-18T04:13:18;13.90;70.30
20066;DHT22;10193;48.884;9.182;2023-02-18T04:15:44;13.90;70.30
20066;DHT22;10193;48.884;9.182;2023-02-18T04:18:11;13.90;70.30
20066;DHT22;10193;48.884;9.182;2023-02-18T04:20:38;13.80;70.00
20066;DHT22;10193;48.884;9.182;2023-02-18T04:23:05;13.80;70.00
20066;DHT22;10193;48.884;9.182;2023-02-18T04:25:31;13.70;69.90
20066;DHT22;10193;48.884;9.182;2023-02-18T04:27:59;13.70;69.90
20066;DHT22;10193;48.884;9.182;2023-02-18T04:30:26;13.60;69.90
20066;DHT22;10193;48.884;9.182;2023-02-18T04:32:53;13.60;70.00
20066;DHT22;10193;48.884;9.182;2023-02-18T04:35:20;13.50;70.30
20066;DHT22;10193;48.884;9.182;2023-02-18T04:37:47;13.50;70.60
20066;DHT22;10193;48.884;9.182;2023-02-18T04:40:14;13.50;71.00
20066;DHT22;10193;48.884;9.182;2023-02-18T04:42:40;13.50;71.20
20066;DHT22;10193;48.884;9.182;2023-02-18T04:45:09;13.50;71.40
20066;DHT22;10193;48.884;9.182;2023-02-18T04:47:35;13.50;71.40
20066;DHT22;10193;48.884;9.182;2023-02-18T04:50:02;13.50;71.30
20066;DHT22;10193;48.884;9.182;2023-02-18T04:52:29;13.50;71.20
20066;DHT22;10193;48.884;9.182;2023-02-18T04:54:56;13.50;71.10
20066;DHT22;10193;48.884;9.182;2023-02-18T04:57:22;13.60;71.00
20066;DHT22;10193;48.884;9.182;2023-02-18T04:59:49;13.60;70.70
20066;DHT22;10193;48.884;9.182;2023-02-18T05:02:17;13.50;70.50
20066;DHT22;10193;48.884;9.182;2023-02-18T05:04:44;13.50;70.30
20066;DHT22;10193;48.884;9.182;2023-02-18T05:07:11;13.50;70.30
20066;DHT22;10193;48.884;9.182;2023-02-18T05:09:37;13.40;70.10
20066;DHT22;10193;48.884;9.182;2023-02-18T05:12:05;13.30;70.10
20066;DHT22;10193;48.884;9.182;2023-02-18T05:14:32;13.30;70.30
20066;DHT22;10193;48.884;9.182;2023-02-18T05:16:58;13.30;70.30
20066;DHT22;10193;48.884;9.182;2023-02-18T05:19:27;13.20;70.40
20066;DHT22;10193;48.884;9.182;2023-02-18T05:21:53;13.20;70.50
20066;DHT22;10193;48.884;9.182;2023-02-18T05:24:20;13.20;70.50
20066;DHT22;10193;48.884;9.182;2023-02-18T05:26:46;13.20;71.30
20066;DHT22;10193;48.884;9.182;2023-02-18T05:29:13;13.10;70.50
20066;DHT22;10193;48.884;9.182;2023-02-18T05:31:40;13.10;70.50
20066;DHT22;10193;48.884;9.182;2023-02-18T05:34:07;13.10;70.40
20066;DHT22;10193;48.884;9.182;2023-02-18T05:36:35;13.00;70.30
20066;DHT22;10193;48.884;9.182;2023-02-18T05:39:01;13.00;70.60
20066;DHT22;10193;48.884;9.182;2023-02-18T05:41:28;13.00;70.30
20066;DHT22;10193;48.884;9.182;2023-02-18T05:43:55;12.90;70.20
20066;DHT22;10193;48.884;9.182;2023-02-18T05:46:39;12.90;70.30
20066;DHT22;10193;48.884;9.182;2023-02-18T05:49:05;12.90;70.40
20066;DHT22;10193;48.884;9.182;2023-02-18T05:51:32;12.80;70.40
20066;DHT22;10193;48.884;9.182;2023-02-18T05:54:00;12.80;70.50
20066;DHT22;10193;48.884;9.182;2023-02-18T05:56:27;12.80;70.50
20066;DHT22;10193;48.884;9.182;2023-02-18T05:58:54;12.80;70.60
20066;DHT22;10193;48.884;9.182;2023-02-18T06:01:21;12.70;70.50
20066;DHT22;10193;48.884;9.182;2023-02-18T06:03:47;12.70;70.50
20066;DHT22;10193;48.884;9.182;2023-02-18T06:06:14;12.70;70.70
20066;DHT22;10193;48.884;9.182;2023-02-18T06:08:41;12.70;70.80
20066;DHT22;10193;48.884;9.182;2023-02-18T06:11:09;12.70;70.90
20066;DHT22;10193;48.884;9.182;2023-02-18T06:13:35;12.70;70.90
20066;DHT22;10193;48.884;9.182;2023-02-18T06:16:02;12.70;71.10
20066;DHT22;10193;48.884;9.182;2023-02-18T06:18:29;12.70;71.20
20066;DHT22;10193;48.884;9.182;2023-02-18T06:20:55;12.80;71.30
20066;DHT22;10193;48.884;9.182;2023-02-18T06:23:22;12.80;71.30
20066;DHT22;10193;48.884;9.182;2023-02-18T06:25:49;12.70;71.20
20066;DHT22;10193;48.884;9.182;2023-02-18T06:28:17;12.80;71.30
20066;DHT22;10193;48.884;9.182;2023-02-18T06:30:44;12.80;71.40
20066;DHT22;10193;48.884;9.182;2023-02-18T06:33:11;12.80;71.50
20066;DHT22;10193;48.884;9.182;2023-02-18T06:35:38;12.80;71.50
20066;DHT22;10193;48.884;9.182;2023-02-18T06:38:05;12.80;71.60
20066;DHT22;10193;48.884;9.182;2023-02-18T06:40:31;12.80;71.70
20066;DHT22;10193;48.884;9.182;2023-02-18T06:42:58;12.90;71.80
20066;DHT22;10193;48.884;9.182;2023-02-18T06:45:26;12.90;71.90
20066;DHT22;10193;48.884;9.182;2023-02-18T06:47:52;12.90;72.00
20066;DHT22;10193;48.884;9.182;2023-02-18T06:50:19;12.90;72.10
20066;DHT22;10193;48.884;9.182;2023-02-18T06:52:46;13.00;72.20
20066;DHT22;10193;48.884;9.182;2023-02-18T06:55:12;13.00;72.20
20066;DHT22;10193;48.884;9.182;2023-02-18T06:57:39;13.00;72.20
20066;DHT22;10193;48.884;9.182;2023-02-18T07:00:07;13.10;72.30
20066;DHT22;10193;48.884;9.182;2023-02-18T07:02:35;13.10;72.30
20066;DHT22;10193;48.884;9.182;2023-02-18T07:05:02;13.10;72.20
20066;DHT22;10193;48.884;9.182;2023-02-18T07:07:28;13.20;72.30
20066;DHT22;10193;48.884;9.182;2023-02-18T07:09:55;13.20;72.30
20066;DHT22;10193;48.884;9.182;2023-02-18T07:12:22;13.20;72.30
20066;DHT22;10193;48.884;9.182;2023-02-18T07:14:48;13.30;72.40
20066;DHT22;10193;48.884;9.182;2023-02-18T07:17:15;13.30;72.30
20066;DHT22;10193;48.884;9.182;2023-02-18T07:19:43;13.30;72.30
20066;DHT22;10193;48.884;9.182;2023-02-18T07:22:10;13.40;72.40
20066;DHT22;10193;48.884;9.182;2023-02-18T07:24:36;13.40;72.30
20066;DHT22;10193;48.884;9.182;2023-02-18T07:27:03;13.50;72.40
20066;DHT22;10193;48.884;9.182;2023-02-18T07:29:30;13.50;72.30
20066;DHT22;10193;48.884;9.182;2023-02-18T07:31:56;13.50;72.30
20066;DHT22;10193;48.884;9.182;2023-02-18T07:34:23;13.60;72.40
20066;DHT22;10193;48.884;9.182;2023-02-18T07:36:51;13.60;72.40
20066;DHT22;10193;48.884;9.182;2023-02-18T07:39:17;13.60;72.20
20066;DHT22;10193;48.884;9.182;2023-02-18T07:41:45;13.70;72.40
20066;DHT22;10193;48.884;9.182;2023-02-18T07:44:12;13.70;72.30
20066;DHT22;10193;48.884;9.182;2023-02-18T07:46:39;13.80;72.40
20066;DHT22;10193;48.884;9.182;2023-02-18T07:49:06;13.80;72.30
20066;DHT22;10193;48.884;9.182;2023-02-18T07:51:33;13.90;72.30
20066;DHT22;10193;48.884;9.182;2023-02-18T07:54:01;13.90;72.30
20066;DHT22;10193;48.884;9.182;2023-02-18T07:56:27;13.90;72.20
20066;DHT22;10193;48.884;9.182;2023-02-18T07:58:54;14.00;72.30
20066;DHT22;10193;48.884;9.182;2023-02-18T08:01:21;14.00;72.20
20066;DHT22;10193;48.884;9.182;2023-02-18T08:03:47;14.10;72.20
20066;DHT22;10193;48.884;9.182;2023-02-18T08:06:20;14.10;72.00
20066;DHT22;10193;48.884;9.182;2023-02-18T08:08:47;14.20;71.80
20066;DHT22;10193;48.884;9.182;2023-02-18T08:11:16;14.20;71.90
20066;DHT22;10193;48.884;9.182;2023-02-18T08:13:42;14.30;71.80
20066;DHT22;10193;48.884;9.182;2023-02-18T08:16:09;14.30;71.70
20066;DHT22;10193;48.884;9.182;2023-02-18T08:18:36;14.40;71.80
20066;DHT22;10193;48.884;9.182;2023-02-18T08:21:03;14.30;71.60
20066;DHT22;10193;48.884;9.182;2023-02-18T08:23:29;14.40;71.60
20066;DHT22;10193;48.884;9.182;2023-02-18T08:25:56;14.40;71.70
20066;DHT22;10193;48.884;9.182;2023-02-18T08:28:25;14.50;71.80
20066;DHT22;10193;48.884;9.182;2023-02-18T08:30:53;14.40;71.60
20066;DHT22;10193;48.884;9.182;2023-02-18T08:33:22;14.50;71.80
20066;DHT22;10193;48.884;9.182;2023-02-18T08:35:50;14.50;71.90
20066;DHT22;10193;48.884;9.182;2023-02-18T08:38:18;14.50;72.00
20066;DHT22;10193;48.884;9.182;2023-02-18T08:40:44;14.60;72.10
20066;DHT22;10193;48.884;9.182;2023-02-18T08:43:12;14.60;72.00
20066;DHT22;10193;48.884;9.182;2023-02-18T08:45:40;14.70;72.00
20066;DHT22;10193;48.884;9.182;2023-02-18T08:48:07;14.70;71.90
20066;DHT22;10193;48.884;9.182;2023-02-18T08:50:34;14.70;71.90
20066;DHT22;10193;48.884;9.182;2023-02-18T08:53:01;14.80;71.90
20066;DHT22;10193;48.884;9.182;2023-02-18T08:55:28;14.90;71.90
20066;DHT22;10193;48.884;9.182;2023-02-18T08:57:55;14.90;71.80
20066;DHT22;10193;48.884;9.182;2023-02-18T09:00:22;14.90;71.80
20066;DHT22;10193;48.884;9.182;2023-02-18T09:02:50;15.00;71.80
20066;DHT22;10193;48.884;9.182;2023-02-18T09:05:17;15.00;71.50
20066;DHT22;10193;48.884;9.182;2023-02-18T09:07:43;15.00;71.60
20066;DHT22;10193;48.884;9.182;2023-02-18T09:10:10;15.10;72.40
20066;DHT22;10193;48.884;9.182;2023-02-18T09:12:37;15.10;71.50
20066;DHT22;10193;48.884;9.182;2023-02-18T09:15:04;15.20;71.80
20066;DHT22;10193;48.884;9.182;2023-02-18T09:17:31;15.20;71.60
20066;DHT22;10193;48.884;9.182;2023-02-18T09:19:59;15.30;71.50
20066;DHT22;10193;48.884;9.182;2023-02-18T09:22:26;15.30;71.50
20066;DHT22;10193;48.884;9.182;2023-02-18T09:24:53;15.40;71.60
20066;DHT22;10193;48.884;9.182;2023-02-18T09:27:20;15.40;71.60
20066;DHT22;10193;48.884;9.182;2023-02-18T09:29:48;15.40;71.60
20066;DHT22;10193;48.884;9.182;2023-02-18T09:32:16;15.50;71.60
20066;DHT22;10193;48.884;9.182;2023-02-18T09:34:43;15.50;71.50
20066;DHT22;10193;48.884;9.182;2023-02-18T09:37:11;15.60;71.40
20066;DHT22;10193;48.884;9.182;2023-02-18T09:39:39;15.60;71.20
20066;DHT22;10193;48.884;9.182;2023-02-18T09:42:11;15.70;71.40
20066;DHT22;10193;48.884;9.182;2023-02-18T09:44:42;15.70;71.20
20066;DHT22;10193;48.884;9.182;2023-02-18T09:47:12;15.80;71.20
20066;DHT22;10193;48.884;9.182;2023-02-18T09:49:42;15.90;71.00
20066;DHT22;10193;48.884;9.182;2023-02-18T09:52:13;15.90;71.10
20066;DHT22;10193;48.884;9.182;2023-02-18T09:54:40;16.00;70.80
20066;DHT22;10193;48.884;9.182;2023-02-18T09:57:17;16.00;70.80
20066;DHT22;10193;48.884;9.182;2023-02-18T09:59:52;16.10;70.10
20066;DHT22;10193;48.884;9.182;2023-02-18T10:02:22;16.10;70.30
20066;DHT22;10193;48.884;9.182;2023-02-18T10:04:50;16.20;70.60
20066;DHT22;10193;48.884;9.182;2023-02-18T10:07:23;16.20;70.30
20066;DHT22;10193;48.884;9.182;2023-02-18T10:09:53;16.20;70.00
20066;DHT22;10193;48.884;9.182;2023-02-18T10:12:22;16.20;70.10
20066;DHT22;10193;48.884;9.182;2023-02-18T10:14:51;16.20;70.00
20066;DHT22;10193;48.884;9.182;2023-02-18T10:17:20;16.30;70.00
20066;DHT22;10193;48.884;9.182;2023-02-18T10:19:48;16.30;69.90
20066;DHT22;10193;48.884;9.182;2023-02-18T10:22:17;16.30;70.00
20066;DHT22;10193;48.884;9.182;2023-02-18T10:24:49;16.30;70.00
20066;DHT22;10193;48.884;9.182;2023-02-18T10:27:21;16.40;69.90
20066;DHT22;10193;48.884;9.182;2023-02-18T10:29:49;16.30;69.80
20066;DHT22;10193;48.884;9.182;2023-02-18T10:32:22;16.40;70.20
20066;DHT22;10193;48.884;9.182;2023-02-18T10:34:52;16.40;69.40
20066;DHT22;10193;48.884;9.182;2023-02-18T10:37:41;16.50;69.50
20066;DHT22;10193;48.884;9.182;2023-02-18T10:40:16;16.50;68.50
20066;DHT22;10193;48.884;9.182;2023-02-18T10:42:58;16.50;68.80
20066;DHT22;10193;48.884;9.182;2023-02-18T10:45:35;16.50;69.40
20066;DHT22;10193;48.884;9.182;2023-02-18T10:48:13;16.60;68.50
20066;DHT22;10193;48.884;9.182;2023-02-18T10:50:44;16.60;68.50
20066;DHT22;10193;48.884;9.182;2023-02-18T10:53:13;16.60;68.70
20066;DHT22;10193;48.884;9.182;2023-02-18T10:55:45;16.60;68.60
20066;DHT22;10193;48.884;9.182;2023-02-18T10:58:29;16.60;68.70
20066;DHT22;10193;48.884;9.182;2023-02-18T11:00:58;16.70;67.70
20066;DHT22;10193;48.884;9.182;2023-02-18T11:03:40;16.70;68.60
20066;DHT22;10193;48.884;9.182;2023-02-18T11:06:15;16.80;67.90
20066;DHT22;10193;48.884;9.182;2023-02-18T11:08:45;16.80;68.00
20066;DHT22;10193;48.884;9.182;2023-02-18T11:11:16;16.90;68.70
20066;DHT22;10193;48.884;9.182;2023-02-18T11:13:43;16.90;67.90
20066;DHT22;10193;48.884;9.182;2023-02-18T11:16:11;16.90;68.10
20066;DHT22;10193;48.884;9.182;2023-02-18T11:18:39;17.00;67.90
20066;DHT22;10193;48.884;9.182;2023-02-18T11:21:23;17.00;67.20
20066;DHT22;10193;48.884;9.182;2023-02-18T11:23:53;17.10;67.40
20066;DHT22;10193;48.884;9.182;2023-02-18T11:26:26;17.10;67.50
20066;DHT22;10193;48.884;9.182;2023-02-18T11:28:59;17.10;66.90
20066;DHT22;10193;48.884;9.182;2023-02-18T11:31:35;17.20;66.90
20066;DHT22;10193;48.884;9.182;2023-02-18T11:34:05;17.20;66.60
20066;DHT22;10193;48.884;9.182;2023-02-18T11:36:34;17.20;66.70
20066;DHT22;10193;48.884;9.182;2023-02-18T11:39:04;17.20;65.90
20066;DHT22;10193;48.884;9.182;2023-02-18T11:41:36;17.30;65.80
20066;DHT22;10193;48.884;9.182;2023-02-18T11:44:06;17.20;65.60
20066;DHT22;10193;48.884;9.182;2023-02-18T11:46:56;17.20;65.10
20066;DHT22;10193;48.884;9.182;2023-02-18T11:49:23;17.20;64.10
20066;DHT22;10193;48.884;9.182;2023-02-18T11:51:51;17.20;64.80
20066;DHT22;10193;48.884;9.182;2023-02-18T11:54:24;17.20;65.10
20066;DHT22;10193;48.884;9.182;2023-02-18T11:56:56;17.20;64.20
20066;DHT22;10193;48.884;9.182;2023-02-18T11:59:24;17.20;63.60
20066;DHT22;10193;48.884;9.182;2023-02-18T12:01:55;17.20;64.00
20066;DHT22;10193;48.884;9.182;2023-02-18T12:04:27;17.20;63.90
20066;DHT22;10193;48.884;9.182;2023-02-18T12:07:05;17.10;63.60
20066;DHT22;10193;48.884;9.182;2023-02-18T12:09:40;17.10;63.10
20066;DHT22;10193;48.884;9.182;2023-02-18T12:12:13;17.10;63.40
20066;DHT22;10193;48.884;9.182;2023-02-18T12:14:41;17.10;62.90
20066;DHT22;10193;48.884;9.182;2023-02-18T12:17:22;17.10;62.70
20066;DHT22;10193;48.884;9.182;2023-02-18T12:20:07;17.10;61.90
20066;DHT22;10193;48.884;9.182;2023-02-18T12:22:43;17.00;61.60
20066;DHT22;10193;48.884;9.182;2023-02-18T12:25:23;17.00;62.50
20066;DHT22;10193;48.884;9.182;2023-02-18T12:28:00;17.00;62.40
20066;DHT22;10193;48.884;9.182;2023-02-18T12:30:52;17.00;61.60
20066;DHT22;10193;48.884;9.182;2023-02-18T12:33:29;17.00;61.50
20066;DHT22;10193;48.884;9.182;2023-02-18T12:36:09;17.00;61.50
20066;DHT22;10193;48.884;9.182;2023-02-18T12:39:01;17.00;61.30
20066;DHT22;10193;48.884;9.182;2023-02-18T12:41:53;17.00;60.90
20066;DHT22;10193;48.884;9.182;2023-02-18T12:44:31;16.90;60.90
20066;DHT22;10193;48.884;9.182;2023-02-18T12:47:16;16.90;61.20
20066;DHT22;10193;48.884;9.182;2023-02-18T12:50:02;16.90;61.70
20066;DHT22;10193;48.884;9.182;2023-02-18T12:52:43;16.80;61.40
20066;DHT22;10193;48.884;9.182;2023-02-18T12:55:26;16.80;61.30
20066;DHT22;10193;48.884;9.182;2023-02-18T12:58:01;16.80;61.60
20066;DHT22;10193;48.884;9.182;2023-02-18T13:00:55;16.80;62.10
20066;DHT22;10193;48.884;9.182;2023-02-18T13:03:40;16.70;61.50
20066;DHT22;10193;48.884;9.182;2023-02-18T13:06:19;16.70;62.60
20066;DHT22;10193;48.884;9.182;2023-02-18T13:08:54;16.80;62.70
20066;DHT22;10193;48.884;9.182;2023-02-18T13:11:35;16.70;62.40
20066;DHT22;10193;48.884;9.182;2023-02-18T13:14:09;16.70;62.50
20066;DHT22;10193;48.884;9.182;2023-02-18T13:16:41;16.70;62.60
20066;DHT22;10193;48.884;9.182;2023-02-18T13:19:21;16.70;62.80
20066;DHT22;10193;48.884;9.182;2023-02-18T13:21:52;16.60;62.50
20066;DHT22;10193;48.884;9.182;2023-02-18T13:24:25;16.70;62.80
20066;DHT22;10193;48.884;9.182;2023-02-18T13:26:59;16.60;62.80
20066;DHT22;10193;48.884;9.182;2023-02-18T13:29:31;16.60;62.60
20066;DHT22;10193;48.884;9.182;2023-02-18T13:32:07;16.60;62.80
20066;DHT22;10193;48.884;9.182;2023-02-18T13:34:39;16.60;62.70
20066;DHT22;10193;48.884;9.182;2023-02-18T13:37:16;16.60;63.10
20066;DHT22;10193;48.884;9.182;2023-02-18T13:39:47;16.60;62.80
20066;DHT22;10193;48.884;9.182;2023-02-18T13:42:31;16.60;63.20
20066;DHT22;10193;48.884;9.182;2023-02-18T13:45:27;16.60;62.90
20066;DHT22;10193;48.884;9.182;2023-02-18T13:47:55;16.60;63.20
20066;DHT22;10193;48.884;9.182;2023-02-18T13:53:22;16.60;63.30
20066;DHT22;10193;48.884;9.182;2023-02-18T13:55:55;16.60;63.20
20066;DHT22;10193;48.884;9.182;2023-02-18T13:58:26;16.60;63.00
20066;DHT22;10193;48.884;9.182;2023-02-18T14:01:00;16.70;63.40
20066;DHT22;10193;48.884;9.182;2023-02-18T14:03:35;16.60;63.30
20066;DHT22;10193;48.884;9.182;2023-02-18T14:06:13;16.70;63.30
20066;DHT22;10193;48.884;9.182;2023-02-18T14:08:40;16.70;63.20
20066;DHT22;10193;48.884;9.182;2023-02-18T14:11:40;16.70;63.50
20066;DHT22;10193;48.884;9.182;2023-02-18T14:14:28;16.70;63.00
20066;DHT22;10193;48.884;9.182;2023-02-18T14:20:44;16.80;63.10
20066;DHT22;10193;48.884;9.182;2023-02-18T14:23:38;16.80;63.20
20066;DHT22;10193;48.884;9.182;2023-02-18T14:26:07;16.80;63.30
20066;DHT22;10193;48.884;9.182;2023-02-18T14:28:38;16.80;63.60
20066;DHT22;10193;48.884;9.182;2023-02-18T14:31:16;16.80;63.50
20066;DHT22;10193;48.884;9.182;2023-02-18T14:33:51;16.90;63.10
20066;DHT22;10193;48.884;9.182;2023-02-18T14:36:29;16.80;63.00
20066;DHT22;10193;48.884;9.182;2023-02-18T14:39:01;16.80;63.10
20066;DHT22;10193;48.884;9.182;2023-02-18T14:41:42;16.80;63.20
20066;DHT22;10193;48.884;9.182;2023-02-18T14:44:41;16.80;62.80
20066;DHT22;10193;48.884;9.182;2023-02-18T14:47:19;16.80;62.80
20066;DHT22;10193;48.884;9.182;2023-02-18T14:49:51;16.80;63.10
20066;DHT22;10193;48.884;9.182;2023-02-18T14:52:25;16.90;63.40
20066;DHT22;10193;48.884;9.182;2023-02-18T14:54:55;16.80;63.20
20066;DHT22;10193;48.884;9.182;2023-02-18T14:57:28;16.80;63.20
20066;DHT22;10193;48.884;9.182;2023-02-18T14:59:58;16.70;62.70
20066;DHT22;10193;48.884;9.182;2023-02-18T15:02:27;16.70;63.10
20066;DHT22;10193;48.884;9.182;2023-02-18T15:05:10;16.70;63.20
20066;DHT22;10193;48.884;9.182;2023-02-18T15:07:39;16.60;62.70
20066;DHT22;10193;48.884;9.182;2023-02-18T15:10:12;16.60;63.00
20066;DHT22;10193;48.884;9.182;2023-02-18T15:12:39;16.50;62.50
20066;DHT22;10193;48.884;9.182;2023-02-18T15:15:08;16.50;63.00
20066;DHT22;10193;48.884;9.182;2023-02-18T15:17:43;16.50;63.10
20066;DHT22;10193;48.884;9.182;2023-02-18T15:20:11;16.40;62.90
20066;DHT22;10193;48.884;9.182;2023-02-18T15:22:40;16.40;63.20
20066;DHT22;10193;48.884;9.182;2023-02-18T15:25:10;16.40;63.30
20066;DHT22;10193;48.884;9.182;2023-02-18T15:27:39;16.40;63.30
20066;DHT22;10193;48.884;9.182;2023-02-18T15:30:17;16.30;63.30
20066;DHT22;10193;48.884;9.182;2023-02-18T15:32:48;16.30;63.10
20066;DHT22;10193;48.884;9.182;2023-02-18T15:35:17;16.30;63.60
20066;DHT22;10193;48.884;9.182;2023-02-18T15:37:51;16.30;63.60
20066;DHT22;10193;48.884;9.182;2023-02-18T15:40:19;16.20;63.30
20066;DHT22;10193;48.884;9.182;2023-02-18T15:42:47;16.20;63.60
20066;DHT22;10193;48.884;9.182;2023-02-18T15:45:18;16.10;63.60
20066;DHT22;10193;48.884;9.182;2023-02-18T15:47:47;16.10;63.60
20066;DHT22;10193;48.884;9.182;2023-02-18T15:50:17;16.10;63.80
20066;DHT22;10193;48.884;9.182;2023-02-18T15:52:47;16.00;63.80
20066;DHT22;10193;48.884;9.182;2023-02-18T15:55:24;16.00;63.80
20066;DHT22;10193;48.884;9.182;2023-02-18T15:57:52;16.00;63.90
20066;DHT22;10193;48.884;9.182;2023-02-18T16:00:26;16.00;64.10
20066;DHT22;10193;48.884;9.182;2023-02-18T16:02:56;15.90;64.00
20066;DHT22;10193;48.884;9.182;2023-02-18T16:05:27;15.90;64.00
20066;DHT22;10193;48.884;9.182;2023-02-18T16:08:00;15.90;64.00